createdAt,value
2022-12-12T00:00:25.273Z,12.83
2022-12-12T00:02:52.097Z,11.20
2022-12-12T00:05:19.757Z,13.23
2022-12-12T00:07:46.543Z,15.07
2022-12-12T00:10:13.486Z,13.73
2022-12-12T00:12:40.997Z,13.70
2022-12-12T00:15:08.718Z,14.70
2022-12-12T00:17:35.565Z,14.93
2022-12-12T00:20:02.462Z,9.87
2022-12-12T00:22:29.520Z,10.77
2022-12-12T00:24:57.653Z,14.93
2022-12-12T00:27:24.428Z,15.00
2022-12-12T00:29:55.297Z,13.53
2022-12-12T00:32:22.165Z,16.23
2022-12-12T00:34:48.941Z,15.60
2022-12-12T00:37:16.030Z,13.23
2022-12-12T00:39:43.293Z,14.47
2022-12-12T00:42:10.128Z,13.47
2022-12-12T00:44:37.087Z,12.43
2022-12-12T00:47:04.350Z,13.33
2022-12-12T00:49:31.349Z,13.03
2022-12-12T00:51:59.341Z,14.43
2022-12-12T00:54:26.253Z,9.77
2022-12-12T00:56:53.332Z,14.27
2022-12-12T00:59:20.220Z,11.20
2022-12-12T01:01:47.508Z,11.33
2022-12-12T01:04:14.633Z,11.77
2022-12-12T01:06:41.751Z,9.57
2022-12-12T01:09:09.580Z,9.87
2022-12-12T01:11:36.476Z,11.33
2022-12-12T01:14:05.092Z,10.47
2022-12-12T01:16:32.041Z,11.23
2022-12-12T01:18:59.694Z,8.83
2022-12-12T01:21:26.570Z,9.17
2022-12-12T01:23:53.482Z,5.80
2022-12-12T01:26:23.473Z,8.40
2022-12-12T01:28:51.540Z,10.60
2022-12-12T01:31:19.544Z,9.43
2022-12-12T01:33:46.718Z,4.97
2022-12-12T01:36:20.178Z,9.80
2022-12-12T01:38:48.480Z,7.33
2022-12-12T01:41:16.639Z,10.23
2022-12-12T01:43:43.858Z,9.23
2022-12-12T01:46:34.567Z,11.27
2022-12-12T01:49:19.229Z,6.90
2022-12-12T01:51:47.886Z,10.37
2022-12-12T01:54:22.827Z,9.63
2022-12-12T01:56:52.160Z,8.77
2022-12-12T01:59:22.552Z,9.33
2022-12-12T02:01:52.384Z,9.20
2022-12-12T02:04:21.461Z,9.53
2022-12-12T02:06:50.762Z,8.37
2022-12-12T02:09:20.129Z,7.60
2022-12-12T02:11:53.008Z,8.10
2022-12-12T02:14:27.437Z,8.57
2022-12-12T02:17:15.893Z,6.57
2022-12-12T02:20:00.874Z,8.30
2022-12-12T02:22:49.316Z,7.33
2022-12-12T02:25:19.335Z,6.97
2022-12-12T02:28:13.715Z,6.57
2022-12-12T02:30:45.162Z,8.03
2022-12-12T02:33:24.744Z,6.53
2022-12-12T02:36:18.930Z,7.50
2022-12-12T02:38:45.738Z,7.80
2022-12-12T02:41:24.108Z,8.50
2022-12-12T02:44:08.377Z,8.43
2022-12-12T02:46:51.241Z,8.40
2022-12-12T02:49:25.338Z,10.50
2022-12-12T02:51:54.664Z,10.13
2022-12-12T02:54:23.271Z,9.73
2022-12-12T02:56:52.274Z,9.23
2022-12-12T02:59:21.940Z,9.10
2022-12-12T03:01:56.828Z,8.77
2022-12-12T03:05:00.217Z,5.73
2022-12-12T03:07:48.311Z,8.10
2022-12-12T03:10:36.968Z,8.83
2022-12-12T03:13:58.442Z,8.20
2022-12-12T03:16:43.779Z,8.37
2022-12-12T03:19:15.609Z,7.80
2022-12-12T03:21:48.107Z,6.83
2022-12-12T03:24:38.493Z,7.57
2022-12-12T03:27:10.995Z,6.90
2022-12-12T03:29:46.506Z,7.33
2022-12-12T03:32:23.423Z,8.00
2022-12-12T03:35:06.922Z,6.97
2022-12-12T03:37:37.291Z,5.53
2022-12-12T03:40:12.207Z,5.60
2022-12-12T03:42:57.674Z,6.53
2022-12-12T03:45:35.136Z,7.07
2022-12-12T03:48:23.225Z,5.83
2022-12-12T03:50:55.199Z,6.67
2022-12-12T03:53:40.528Z,4.90
2022-12-12T03:56:22.763Z,6.93
2022-12-12T03:58:55.899Z,6.93
2022-12-12T04:01:35.200Z,7.27
2022-12-12T04:04:16.548Z,7.17
2022-12-12T04:06:54.351Z,6.63
2022-12-12T04:09:47.689Z,6.87
2022-12-12T04:13:00.062Z,6.73
2022-12-12T04:15:48.374Z,6.30
2022-12-12T04:18:37.076Z,6.13
2022-12-12T04:21:49.873Z,7.57
2022-12-12T04:24:47.148Z,7.40
2022-12-12T04:27:24.420Z,6.87
2022-12-12T04:30:02.449Z,8.70
2022-12-12T04:32:40.603Z,6.83
2022-12-12T04:35:15.984Z,8.20
2022-12-12T04:37:54.012Z,6.50
2022-12-12T04:40:26.399Z,8.40
2022-12-12T04:42:59.043Z,7.33
2022-12-12T04:45:31.107Z,9.33
2022-12-12T04:48:00.983Z,8.30
2022-12-12T04:50:30.955Z,10.70
2022-12-12T04:53:02.033Z,7.40
2022-12-12T04:55:40.000Z,9.80
2022-12-12T04:58:07.669Z,9.47
2022-12-12T05:00:58.793Z,8.37
2022-12-12T05:03:43.927Z,9.57
2022-12-12T05:06:14.446Z,7.47
2022-12-12T05:08:48.774Z,10.30
2022-12-12T05:11:18.488Z,9.73
2022-12-12T05:13:45.695Z,9.93
2022-12-12T05:16:35.444Z,10.63
2022-12-12T05:19:02.354Z,9.70
2022-12-12T05:21:29.165Z,11.27
2022-12-12T05:23:57.247Z,9.47
2022-12-12T05:26:25.328Z,10.33
2022-12-12T05:28:52.604Z,11.63
2022-12-12T05:31:19.459Z,6.80
2022-12-12T05:33:46.418Z,9.57
2022-12-12T05:36:14.325Z,8.93
2022-12-12T05:38:41.578Z,10.37
2022-12-12T05:41:09.170Z,7.37
2022-12-12T05:43:36.284Z,9.60
2022-12-12T05:46:03.867Z,9.90
2022-12-12T05:48:31.021Z,10.97
2022-12-12T05:50:58.064Z,9.20
2022-12-12T05:53:26.025Z,10.27
2022-12-12T05:55:53.050Z,9.80
2022-12-12T05:58:20.554Z,8.93
2022-12-12T06:00:49.052Z,8.73
2022-12-12T06:03:16.628Z,10.10
2022-12-12T06:05:43.988Z,8.83
2022-12-12T06:08:11.097Z,9.10
2022-12-12T06:10:38.117Z,10.37
2022-12-12T06:13:05.186Z,10.07
2022-12-12T06:15:32.663Z,10.03
2022-12-12T06:17:59.540Z,10.00
2022-12-12T06:20:26.437Z,10.97
2022-12-12T06:22:54.089Z,11.27
2022-12-12T06:25:21.468Z,11.07
2022-12-12T06:27:48.561Z,9.63
2022-12-12T06:30:15.585Z,10.80
2022-12-12T06:32:42.799Z,8.97
2022-12-12T06:35:10.274Z,9.17
2022-12-12T06:37:38.735Z,8.80
2022-12-12T06:40:06.129Z,8.60
2022-12-12T06:42:32.926Z,9.33
2022-12-12T06:44:59.801Z,10.80
2022-12-12T06:47:26.692Z,10.27
2022-12-12T06:49:53.512Z,10.20
2022-12-12T06:52:20.330Z,9.60
2022-12-12T06:54:47.430Z,11.53
2022-12-12T06:57:14.500Z,10.80
2022-12-12T06:59:41.476Z,11.50
2022-12-12T07:02:11.325Z,10.20
2022-12-12T07:04:38.190Z,11.57
2022-12-12T07:07:05.027Z,11.30
2022-12-12T07:09:31.997Z,11.97
2022-12-12T07:11:58.990Z,11.50
2022-12-12T07:14:25.882Z,14.07
2022-12-12T07:16:53.281Z,10.70
2022-12-12T07:19:20.266Z,10.93
2022-12-12T07:21:47.325Z,11.23
2022-12-12T07:24:15.781Z,11.77
2022-12-12T07:26:42.893Z,11.10
2022-12-12T07:29:10.546Z,11.27
2022-12-12T07:31:37.595Z,11.87
2022-12-12T07:34:04.540Z,11.43
2022-12-12T07:36:31.447Z,11.73
2022-12-12T07:38:58.365Z,11.97
2022-12-12T07:41:25.406Z,10.30
2022-12-12T07:43:52.634Z,11.70
2022-12-12T07:46:23.178Z,11.53
2022-12-12T07:48:51.264Z,8.70
2022-12-12T07:51:19.226Z,9.10
2022-12-12T07:53:46.877Z,10.23
2022-12-12T07:56:15.729Z,11.63
2022-12-12T07:58:43.548Z,9.20
2022-12-12T08:01:14.706Z,12.13
2022-12-12T08:03:43.417Z,8.20
2022-12-12T08:06:10.718Z,9.43
2022-12-12T08:08:39.279Z,8.10
2022-12-12T08:11:11.651Z,8.33
2022-12-12T08:13:39.918Z,10.57
2022-12-12T08:16:12.029Z,8.40
2022-12-12T08:18:38.805Z,12.70
2022-12-12T08:21:13.717Z,8.77
2022-12-12T08:23:41.635Z,9.07
2022-12-12T08:26:15.252Z,10.00
2022-12-12T08:28:44.879Z,9.00
2022-12-12T08:31:14.058Z,10.87
2022-12-12T08:33:41.623Z,6.90
2022-12-12T08:36:17.268Z,6.97
2022-12-12T08:38:44.397Z,8.17
2022-12-12T08:41:12.225Z,6.83
2022-12-12T08:43:40.877Z,8.30
2022-12-12T08:46:15.313Z,6.00
2022-12-12T08:48:44.582Z,8.10
2022-12-12T08:51:11.382Z,5.40
2022-12-12T08:53:38.212Z,7.57
2022-12-12T08:56:05.726Z,5.90
2022-12-12T08:58:32.551Z,6.63
2022-12-12T09:00:59.473Z,8.80
2022-12-12T09:03:29.559Z,9.00
2022-12-12T09:05:56.911Z,9.77
2022-12-12T09:08:23.797Z,9.23
2022-12-12T09:10:51.104Z,8.80
2022-12-12T09:13:18.625Z,9.00
2022-12-12T09:15:45.406Z,8.77
2022-12-12T09:18:12.355Z,5.63
2022-12-12T09:20:39.149Z,6.00
2022-12-12T09:23:05.930Z,8.03
2022-12-12T09:25:32.820Z,6.50
2022-12-12T09:27:59.661Z,7.33
2022-12-12T09:30:26.398Z,6.80
2022-12-12T09:32:53.230Z,4.53
2022-12-12T09:35:20.024Z,6.30
2022-12-12T09:37:46.804Z,6.57
2022-12-12T09:40:20.416Z,7.37
2022-12-12T09:42:50.772Z,7.13
2022-12-12T09:45:19.559Z,5.40
2022-12-12T09:47:50.818Z,6.77
2022-12-12T09:50:33.193Z,5.97
2022-12-12T09:53:11.561Z,6.53
2022-12-12T09:56:03.514Z,6.13
2022-12-12T09:58:43.480Z,7.00
2022-12-12T10:01:14.500Z,6.33
2022-12-12T10:03:56.109Z,6.50
2022-12-12T10:06:38.863Z,4.80
2022-12-12T10:09:43.454Z,5.83
2022-12-12T10:12:15.449Z,5.60
2022-12-12T10:14:52.923Z,5.17
2022-12-12T10:17:34.212Z,5.53
2022-12-12T10:20:07.921Z,11.97
2022-12-12T10:22:45.604Z,6.33
2022-12-12T10:25:42.850Z,6.90
2022-12-12T10:28:13.542Z,5.73
2022-12-12T10:31:14.503Z,5.40
2022-12-12T10:34:21.161Z,6.73
2022-12-12T10:36:57.192Z,5.50
2022-12-12T10:39:45.381Z,5.83
2022-12-12T10:42:38.561Z,6.27
2022-12-12T10:45:17.665Z,5.60
2022-12-12T10:47:45.435Z,5.57
2022-12-12T10:50:21.209Z,5.80
2022-12-12T10:52:47.974Z,7.03
2022-12-12T10:55:25.304Z,4.93
2022-12-12T10:58:04.343Z,6.17
2022-12-12T11:00:40.135Z,5.13
2022-12-12T11:03:26.558Z,6.20
2022-12-12T11:05:55.407Z,5.60
2022-12-12T11:08:25.330Z,6.47
2022-12-12T11:11:00.342Z,5.93
2022-12-12T11:13:28.056Z,5.37
2022-12-12T11:15:57.740Z,5.83
2022-12-12T11:18:25.569Z,5.83
2022-12-12T11:21:07.653Z,5.43
2022-12-12T11:23:39.154Z,5.50
2022-12-12T11:26:16.484Z,3.50
2022-12-12T11:28:46.620Z,5.67
2022-12-12T11:31:19.935Z,6.13
2022-12-12T11:33:54.496Z,5.60
2022-12-12T11:36:41.716Z,6.57
2022-12-12T11:39:23.511Z,6.17
2022-12-12T11:42:02.346Z,5.43
2022-12-12T11:44:35.718Z,6.93
2022-12-12T11:47:27.173Z,6.13
2022-12-12T11:50:00.085Z,7.00
2022-12-12T11:52:32.700Z,8.70
2022-12-12T11:55:01.147Z,7.33
2022-12-12T11:58:12.093Z,6.60
2022-12-12T12:01:19.387Z,7.33
2022-12-12T12:03:57.630Z,5.07
2022-12-12T12:06:27.349Z,6.40
2022-12-12T12:09:09.552Z,6.80
2022-12-12T12:11:48.545Z,7.17
2022-12-12T12:14:42.336Z,6.97
2022-12-12T12:17:23.175Z,5.60
2022-12-12T12:20:10.046Z,6.13
2022-12-12T12:23:09.260Z,4.60
2022-12-12T12:26:01.001Z,5.73
2022-12-12T12:28:54.790Z,6.83
2022-12-12T12:31:40.685Z,5.53
2022-12-12T12:34:27.674Z,4.60
2022-12-12T12:37:12.593Z,4.53
2022-12-12T12:40:17.087Z,6.07
2022-12-12T12:43:21.927Z,5.20
2022-12-12T12:45:57.845Z,6.83
2022-12-12T12:48:35.350Z,5.73
2022-12-12T12:51:02.034Z,5.50
2022-12-12T12:53:40.369Z,6.37
2022-12-12T12:56:27.854Z,5.73
2022-12-12T12:58:59.261Z,2.87
2022-12-12T13:01:29.544Z,5.43
2022-12-12T13:04:05.823Z,6.43
2022-12-12T13:06:41.685Z,6.83
2022-12-12T13:09:26.430Z,5.63
2022-12-12T13:12:16.109Z,7.53
2022-12-12T13:14:50.904Z,7.00
2022-12-12T13:17:25.639Z,6.27
2022-12-12T13:19:56.315Z,7.10
2022-12-12T13:22:51.062Z,6.43
2022-12-12T13:25:43.099Z,5.83
2022-12-12T13:28:18.248Z,6.50
2022-12-12T13:31:12.919Z,6.30
2022-12-12T13:34:03.016Z,6.63
2022-12-12T13:36:35.193Z,6.73
2022-12-12T13:39:04.138Z,5.60
2022-12-12T13:41:53.641Z,6.60
2022-12-12T13:44:34.487Z,5.70
2022-12-12T13:47:02.367Z,5.50
2022-12-12T13:49:40.857Z,4.67
2022-12-12T13:52:42.294Z,5.53
2022-12-12T13:55:11.777Z,4.47
2022-12-12T13:57:57.302Z,7.43
2022-12-12T14:00:25.954Z,5.67
2022-12-12T14:03:11.744Z,5.80
2022-12-12T14:05:53.123Z,7.10
2022-12-12T14:08:35.799Z,6.03
2022-12-12T14:11:06.335Z,5.23
2022-12-12T14:13:45.772Z,7.70
2022-12-12T14:16:26.414Z,5.23
2022-12-12T14:19:48.163Z,7.87
2022-12-12T14:22:50.131Z,7.37
2022-12-12T14:25:20.914Z,8.10
2022-12-12T14:27:50.545Z,5.97
2022-12-12T14:30:19.323Z,7.37
2022-12-12T14:32:58.795Z,7.50
2022-12-12T14:35:37.952Z,7.03
2022-12-12T14:38:27.978Z,6.63
2022-12-12T14:41:01.789Z,6.73
2022-12-12T14:43:35.174Z,7.40
2022-12-12T14:46:02.813Z,7.33
2022-12-12T14:48:37.005Z,5.30
2022-12-12T14:51:15.894Z,7.67
2022-12-12T14:53:49.433Z,6.73
2022-12-12T14:56:29.698Z,7.93
2022-12-12T14:59:12.919Z,6.67
2022-12-12T15:01:56.258Z,9.00
2022-12-12T15:04:32.782Z,8.07
2022-12-12T15:07:04.793Z,7.87
2022-12-12T15:09:39.348Z,7.17
2022-12-12T15:12:16.330Z,7.93
2022-12-12T15:14:49.904Z,7.50
2022-12-12T15:17:28.776Z,6.27
2022-12-12T15:20:05.970Z,8.40
2022-12-12T15:22:39.218Z,6.73
2022-12-12T15:25:21.719Z,8.63
2022-12-12T15:27:55.556Z,3.97
2022-12-12T15:30:32.414Z,7.70
2022-12-12T15:33:01.298Z,5.83
2022-12-12T15:35:28.264Z,7.60
2022-12-12T15:37:59.367Z,6.17
2022-12-12T15:40:33.316Z,8.23
2022-12-12T15:43:12.309Z,7.13
2022-12-12T15:45:46.622Z,9.27
2022-12-12T15:48:16.154Z,9.00
2022-12-12T15:50:43.251Z,7.00
2022-12-12T15:53:29.316Z,8.33
2022-12-12T15:56:29.730Z,7.13
2022-12-12T15:59:17.253Z,7.50
2022-12-12T16:01:44.329Z,6.50
2022-12-12T16:04:11.439Z,7.17
2022-12-12T16:06:42.821Z,6.83
2022-12-12T16:09:20.464Z,6.80
2022-12-12T16:11:57.144Z,7.40
2022-12-12T16:14:41.783Z,8.63
2022-12-12T16:17:24.162Z,7.40
2022-12-12T16:19:53.833Z,7.20
2022-12-12T16:22:32.713Z,9.07
2022-12-12T16:25:21.662Z,6.47
2022-12-12T16:27:57.756Z,6.80
2022-12-12T16:30:26.705Z,8.33
2022-12-12T16:32:53.763Z,6.40
2022-12-12T16:35:23.475Z,6.77
2022-12-12T16:37:53.390Z,7.03
2022-12-12T16:40:21.327Z,7.43
2022-12-12T16:43:09.497Z,12.00
2022-12-12T16:45:39.223Z,13.93
2022-12-12T16:48:18.972Z,8.23
2022-12-12T16:50:47.095Z,7.83
2022-12-12T16:53:14.334Z,11.03
2022-12-12T16:55:44.557Z,7.00
2022-12-12T16:58:11.362Z,6.17
2022-12-12T17:00:40.008Z,6.23
2022-12-12T17:03:07.254Z,6.83
2022-12-12T17:05:35.288Z,8.40
2022-12-12T17:08:02.785Z,7.43
2022-12-12T17:10:31.561Z,6.40
2022-12-12T17:12:58.588Z,6.40
2022-12-12T17:15:30.803Z,7.57
2022-12-12T17:17:58.388Z,6.67
2022-12-12T17:20:26.347Z,6.80
2022-12-12T17:22:53.391Z,7.20
2022-12-12T17:25:23.060Z,9.07
2022-12-12T17:27:51.686Z,6.57
2022-12-12T17:30:19.603Z,6.53
2022-12-12T17:35:31.101Z,7.33
2022-12-12T17:37:59.416Z,5.93
2022-12-12T17:40:26.684Z,7.10
2022-12-12T17:42:53.577Z,8.47
2022-12-12T17:45:20.529Z,4.83
2022-12-12T17:47:47.605Z,7.57
2022-12-12T17:50:14.999Z,7.07
2022-12-12T17:52:42.250Z,8.27
2022-12-12T17:55:55.154Z,6.97
2022-12-12T17:57:56.499Z,7.43
2022-12-12T18:00:23.771Z,8.00
2022-12-12T18:02:50.540Z,6.40
2022-12-12T18:05:19.648Z,8.20
2022-12-12T18:07:46.702Z,8.50
2022-12-12T18:10:13.917Z,9.10
2022-12-12T18:12:45.604Z,7.90
2022-12-12T18:15:17.018Z,8.17
2022-12-12T18:17:43.780Z,8.57
2022-12-12T18:20:11.089Z,8.70
2022-12-12T18:22:38.103Z,6.63
2022-12-12T18:25:05.717Z,6.97
2022-12-12T18:27:32.749Z,6.77
2022-12-12T18:29:59.683Z,7.67
2022-12-12T18:32:29.116Z,6.97
2022-12-12T18:34:56.018Z,8.13
2022-12-12T18:37:22.931Z,7.83
2022-12-12T18:39:49.686Z,7.80
2022-12-12T18:42:17.158Z,7.07
2022-12-12T18:44:44.003Z,8.50
2022-12-12T18:47:10.821Z,5.27
2022-12-12T18:49:37.680Z,5.33
2022-12-12T18:52:04.701Z,7.40
2022-12-12T18:54:31.564Z,6.97
2022-12-12T18:56:58.562Z,7.37
2022-12-12T18:59:25.333Z,8.73
2022-12-12T19:01:52.937Z,7.83
2022-12-12T19:04:23.447Z,8.17
2022-12-12T19:06:50.888Z,7.03
2022-12-12T19:09:19.261Z,7.90
2022-12-12T19:11:47.393Z,8.47
2022-12-12T19:14:16.064Z,5.83
2022-12-12T19:16:43.640Z,7.20
2022-12-12T19:19:12.070Z,9.17
2022-12-12T19:21:39.679Z,7.10
2022-12-12T19:24:12.406Z,7.23
2022-12-12T19:26:42.171Z,6.30
2022-12-12T19:29:15.470Z,6.53
2022-12-12T19:31:43.126Z,8.20
2022-12-12T19:34:12.535Z,8.97
2022-12-12T19:36:39.322Z,6.87
2022-12-12T19:39:07.846Z,6.47
2022-12-12T19:41:35.838Z,9.57
2022-12-12T19:44:04.209Z,7.90
2022-12-12T19:46:32.897Z,9.33
2022-12-12T19:49:02.103Z,7.47
2022-12-12T19:51:32.558Z,9.07
2022-12-12T19:54:00.435Z,8.10
2022-12-12T19:56:30.477Z,7.13
2022-12-12T19:58:58.257Z,7.47
2022-12-12T20:01:30.421Z,9.50
2022-12-12T20:04:18.893Z,9.07
2022-12-12T20:06:47.078Z,9.40
2022-12-12T20:09:17.111Z,8.03
2022-12-12T20:11:45.444Z,9.40
2022-12-12T20:14:14.732Z,9.27
2022-12-12T20:16:42.287Z,7.30
2022-12-12T20:19:09.775Z,8.60
2022-12-12T20:24:24.321Z,8.47
2022-12-12T20:26:52.426Z,7.87
2022-12-12T20:29:19.317Z,7.90
2022-12-12T20:31:46.192Z,10.40
2022-12-12T20:34:15.692Z,8.20
2022-12-12T20:36:44.441Z,6.13
2022-12-12T20:39:19.286Z,7.17
2022-12-12T20:41:46.276Z,7.20
2022-12-12T20:44:14.104Z,6.00
2022-12-12T20:46:43.111Z,7.47
2022-12-12T20:49:14.697Z,8.57
2022-12-12T20:51:58.593Z,6.67
2022-12-12T20:54:29.589Z,8.83
2022-12-12T20:56:58.326Z,6.63
2022-12-12T20:59:25.931Z,6.67
2022-12-12T21:01:53.180Z,9.97
2022-12-12T21:04:20.214Z,9.43
2022-12-12T21:06:51.433Z,9.03
2022-12-12T21:09:25.080Z,8.70
2022-12-12T21:11:57.932Z,8.37
2022-12-12T21:14:27.011Z,7.23
2022-12-12T21:16:54.431Z,6.37
2022-12-12T21:19:22.761Z,9.57
2022-12-12T21:21:50.510Z,7.83
2022-12-12T21:24:17.984Z,9.33
2022-12-12T21:26:45.947Z,7.33
2022-12-12T21:29:13.416Z,10.13
2022-12-12T21:31:48.260Z,11.40
2022-12-12T21:34:17.645Z,10.30
2022-12-12T21:36:44.659Z,9.40
2022-12-12T21:39:12.383Z,9.97
2022-12-12T21:41:41.842Z,10.13
2022-12-12T21:44:09.623Z,9.90
2022-12-12T21:46:37.218Z,10.80
2022-12-12T21:49:22.821Z,8.77
2022-12-12T21:51:49.698Z,10.37
2022-12-12T21:54:16.738Z,10.73
2022-12-12T21:56:44.279Z,8.03
2022-12-12T21:59:13.234Z,9.17
2022-12-12T22:01:41.812Z,9.03
2022-12-12T22:04:10.023Z,8.97
2022-12-12T22:06:37.033Z,11.83
2022-12-12T22:09:07.936Z,6.57
2022-12-12T22:11:41.567Z,7.20
2022-12-12T22:14:20.982Z,9.00
2022-12-12T22:16:48.149Z,9.13
2022-12-12T22:19:15.826Z,11.17
2022-12-12T22:21:47.732Z,9.73
2022-12-12T22:24:16.547Z,5.70
2022-12-12T22:26:46.184Z,7.27
2022-12-12T22:29:15.809Z,8.23
2022-12-12T22:31:43.725Z,8.63
2022-12-12T22:34:14.310Z,7.30
2022-12-12T22:36:41.643Z,8.93
2022-12-12T22:39:19.126Z,6.97
2022-12-12T22:41:48.068Z,6.83
2022-12-12T22:44:17.711Z,7.83
2022-12-12T22:46:47.769Z,7.87
2022-12-12T22:49:21.029Z,4.87
2022-12-12T22:51:48.737Z,7.03
2022-12-12T22:54:16.196Z,7.57
2022-12-12T22:56:45.393Z,5.23
2022-12-12T22:59:13.676Z,5.97
2022-12-12T23:01:41.563Z,6.70
2022-12-12T23:04:12.662Z,6.87
2022-12-12T23:06:39.794Z,7.17
2022-12-12T23:09:14.327Z,5.17
2022-12-12T23:11:41.604Z,5.67
2022-12-12T23:14:11.592Z,6.53
2022-12-12T23:16:38.474Z,6.53
2022-12-12T23:19:06.208Z,5.97
2022-12-12T23:21:34.616Z,5.73
2022-12-12T23:24:01.836Z,7.53
2022-12-12T23:26:31.164Z,7.53
2022-12-12T23:28:59.873Z,7.17
2022-12-12T23:31:29.834Z,7.07
2022-12-12T23:34:03.473Z,7.93
2022-12-12T23:36:31.347Z,7.03
2022-12-12T23:39:04.382Z,8.03
2022-12-12T23:41:31.198Z,8.13
2022-12-12T23:43:58.122Z,7.80
2022-12-12T23:46:28.918Z,8.23
2022-12-12T23:48:57.855Z,8.23
2022-12-12T23:51:25.923Z,7.97
2022-12-12T23:53:54.694Z,7.87
2022-12-12T23:56:21.605Z,7.60
2022-12-12T23:58:48.429Z,7.10
